Portada
METAR-TAF:

METAR-TAF

Aeroports :

Brookhaven Airport

Shirley, Nova York, Estats Units d'Amèrica

latitud: 40-49-18N, longitud: 072-52-08W, altitud: 25 m

Observació

L'informe es va fer fa 49 minuts, a les 17:56 UTC
Vent 6 kt del Sud
Temperatura 22°C
Humitat 69%
Pressió 1023 hPa
Visibilitat: 16.1 km
Cel clar

METAR: KHWV 261756Z AUTO 17006KT 10SM CLR 22/16 A3022 RMK AO2 SLP232 6//// T02220156 10228 20156 58007 TSNO

Hora: 14:45 (18:45 UTC)


TAF: manca

Observacions i pronòstics meteorològics de més de 4000 aeroports (METAR i TAF).

Les estacions disponibles són els punts grocs i vermells al mapa.

Posi el ratolí al punt desitjat per veure el nom de l'estació.

Feu clic per veure les observacions i els pronòstics meteorològics.

Per canviar el mapa: feu clic els botons verds amb una creu de color negre per apropar; al botó verd amb un guió per allunyar la imatge; o en les fletxes verdes per a mapes adjacents.


METAR-TAF: